EXS1641 EGSS-LGSK
Flight info
| Callsign | EXS1641 |
|---|---|
| Flight time | N/A |
| Altitude | 35000 |
| Route | CLN M84 KONAN UL607 KOK DCT REMBA UL607 MATUG DCT AMASI DCT BOMBI DCT DETEV DCT DINKU M867 XERUM DCT BAVAX DCT RADIZ DCT NIPEL DCT ABISO DCT NEMEK DCT MEDUX UM867 KOGAT DCT ERANA UL737 TSL |
| Aircraft | B738/M-SDE2E3FGHIRWXY/LB1 |
Departure
| Time | N/A |
|---|---|
| Airport | London Stansted Airport (EGSS) |
Arrival
| Time | 2026-04-20 15:32 |
|---|---|
| Airport | Skiathos Island National Airport (LGSK) |
| Time | Latitude | Longitude | Altitude | Speed | Heading |
|---|---|---|---|---|---|
| 2026-04-20 14:29 | 44.48955 | 17.20492 | 36992 ft | 488 kts | 131° |
| 2026-04-20 14:29 | 44.46790 | 17.24170 | 36978 ft | 488 kts | 131° |
| 2026-04-20 14:30 | 44.42467 | 17.31498 | 36979 ft | 487 kts | 131° |
| 2026-04-20 14:30 | 44.38144 | 17.38807 | 36975 ft | 487 kts | 131° |
| 2026-04-20 14:31 | 44.33816 | 17.46104 | 36973 ft | 488 kts | 131° |
| 2026-04-20 14:31 | 44.29508 | 17.53350 | 36978 ft | 488 kts | 131° |
| 2026-04-20 14:32 | 44.25170 | 17.60628 | 36980 ft | 488 kts | 131° |
| 2026-04-20 14:32 | 44.20817 | 17.67913 | 36959 ft | 489 kts | 131° |
| 2026-04-20 14:33 | 44.16460 | 17.75189 | 36954 ft | 488 kts | 131° |
| 2026-04-20 14:33 | 44.12111 | 17.82431 | 36949 ft | 487 kts | 131° |
| 2026-04-20 14:34 | 44.07754 | 17.89666 | 36948 ft | 486 kts | 131° |
| 2026-04-20 14:34 | 44.03403 | 17.96875 | 36951 ft | 485 kts | 131° |
| 2026-04-20 14:35 | 43.99087 | 18.04008 | 36951 ft | 485 kts | 131° |
| 2026-04-20 14:35 | 43.94742 | 18.11171 | 36945 ft | 485 kts | 131° |
| 2026-04-20 14:36 | 43.90393 | 18.18322 | 36929 ft | 484 kts | 131° |
| 2026-04-20 14:36 | 43.86048 | 18.25448 | 36906 ft | 484 kts | 131° |
| 2026-04-20 14:37 | 43.81701 | 18.32562 | 36911 ft | 483 kts | 131° |
| 2026-04-20 14:37 | 43.77382 | 18.39612 | 36917 ft | 483 kts | 131° |
| 2026-04-20 14:38 | 43.73024 | 18.46707 | 36924 ft | 484 kts | 131° |
| 2026-04-20 14:38 | 43.68662 | 18.53792 | 36927 ft | 483 kts | 131° |
| 2026-04-20 14:39 | 43.64307 | 18.60849 | 36917 ft | 483 kts | 131° |
| 2026-04-20 14:39 | 43.59940 | 18.67907 | 36948 ft | 483 kts | 131° |
| 2026-04-20 14:40 | 43.55564 | 18.74962 | 36944 ft | 484 kts | 131° |
| 2026-04-20 14:40 | 43.51207 | 18.81970 | 36941 ft | 484 kts | 132° |
| 2026-04-20 14:41 | 43.46816 | 18.89016 | 36949 ft | 484 kts | 131° |
| 2026-04-20 14:41 | 43.42429 | 18.96037 | 36946 ft | 483 kts | 132° |
| 2026-04-20 14:42 | 43.38043 | 19.03042 | 36946 ft | 483 kts | 132° |
| 2026-04-20 14:42 | 43.33673 | 19.10002 | 36961 ft | 484 kts | 132° |
| 2026-04-20 14:43 | 43.29264 | 19.17007 | 36963 ft | 485 kts | 132° |
| 2026-04-20 14:43 | 43.24845 | 19.24013 | 36960 ft | 486 kts | 132° |
| 2026-04-20 14:44 | 43.20416 | 19.31017 | 36961 ft | 486 kts | 132° |
| 2026-04-20 14:44 | 43.15980 | 19.38017 | 36953 ft | 486 kts | 132° |
| 2026-04-20 14:45 | 43.11539 | 19.45006 | 36965 ft | 486 kts | 132° |
| 2026-04-20 14:45 | 43.07096 | 19.51982 | 36965 ft | 486 kts | 132° |
| 2026-04-20 14:46 | 43.02672 | 19.58910 | 36958 ft | 486 kts | 132° |
| 2026-04-20 14:46 | 42.98231 | 19.65850 | 36966 ft | 484 kts | 132° |
| 2026-04-20 14:47 | 42.93785 | 19.72781 | 36971 ft | 485 kts | 132° |
| 2026-04-20 14:48 | 42.87107 | 19.83160 | 36970 ft | 485 kts | 132° |
| 2026-04-20 14:48 | 42.82643 | 19.90080 | 36966 ft | 485 kts | 132° |
| 2026-04-20 14:49 | 42.78206 | 19.96942 | 36961 ft | 486 kts | 132° |
| 2026-04-20 14:49 | 42.73743 | 20.03849 | 36952 ft | 484 kts | 131° |
| 2026-04-20 14:50 | 42.69448 | 20.10891 | 36981 ft | 484 kts | 129° |
| 2026-04-20 14:50 | 42.65194 | 20.18009 | 36961 ft | 485 kts | 130° |
| 2026-04-20 14:51 | 42.60950 | 20.25048 | 36952 ft | 482 kts | 130° |
| 2026-04-20 14:51 | 42.56690 | 20.32052 | 36971 ft | 481 kts | 130° |
| 2026-04-20 14:52 | 42.52410 | 20.39061 | 36963 ft | 483 kts | 130° |
| 2026-04-20 14:52 | 42.48118 | 20.46074 | 36972 ft | 484 kts | 130° |
| 2026-04-20 14:53 | 42.43804 | 20.53109 | 36969 ft | 485 kts | 130° |
| 2026-04-20 14:53 | 42.39476 | 20.60151 | 36975 ft | 486 kts | 130° |
| 2026-04-20 14:54 | 42.35139 | 20.67191 | 36983 ft | 487 kts | 130° |
| 2026-04-20 14:54 | 42.30791 | 20.74232 | 36964 ft | 488 kts | 130° |
| 2026-04-20 14:55 | 42.26463 | 20.81225 | 36994 ft | 488 kts | 130° |
| 2026-04-20 14:55 | 42.22097 | 20.88262 | 36973 ft | 489 kts | 130° |
| 2026-04-20 14:56 | 42.17726 | 20.95292 | 36952 ft | 488 kts | 130° |
| 2026-04-20 14:56 | 42.13358 | 21.02303 | 36944 ft | 487 kts | 130° |
| 2026-04-20 14:57 | 42.08827 | 21.09025 | 36998 ft | 482 kts | 137° |
| 2026-04-20 14:57 | 42.03927 | 21.15177 | 36961 ft | 482 kts | 139° |
| 2026-04-20 14:58 | 41.98981 | 21.21273 | 36929 ft | 482 kts | 138° |
| 2026-04-20 14:58 | 41.94073 | 21.27407 | 36938 ft | 482 kts | 138° |
| 2026-04-20 14:59 | 41.89190 | 21.33557 | 36932 ft | 480 kts | 137° |
| 2026-04-20 14:59 | 41.84355 | 21.39647 | 36932 ft | 480 kts | 137° |
| 2026-04-20 15:00 | 41.79480 | 21.45771 | 36927 ft | 480 kts | 138° |
| 2026-04-20 15:00 | 41.74608 | 21.51873 | 36933 ft | 480 kts | 137° |
| 2026-04-20 15:01 | 41.69732 | 21.57968 | 36923 ft | 479 kts | 137° |
| 2026-04-20 15:01 | 41.64858 | 21.64045 | 36940 ft | 480 kts | 138° |
| 2026-04-20 15:02 | 41.59955 | 21.70146 | 36936 ft | 482 kts | 138° |
| 2026-04-20 15:02 | 41.55021 | 21.76272 | 36806 ft | 487 kts | 138° |
| 2026-04-20 15:02 | 41.52539 | 21.79349 | 36533 ft | 487 kts | 137° |
| 2026-04-20 15:03 | 41.50062 | 21.82416 | 36249 ft | 484 kts | 137° |
| 2026-04-20 15:03 | 41.47596 | 21.85467 | 35993 ft | 481 kts | 137° |
| 2026-04-20 15:03 | 41.45143 | 21.88498 | 35748 ft | 481 kts | 137° |
| 2026-04-20 15:03 | 41.42717 | 21.91493 | 35506 ft | 481 kts | 137° |
| 2026-04-20 15:04 | 41.40264 | 21.94517 | 35262 ft | 481 kts | 137° |
| 2026-04-20 15:04 | 41.37811 | 21.97538 | 35019 ft | 481 kts | 137° |
| 2026-04-20 15:04 | 41.35353 | 22.00562 | 34781 ft | 481 kts | 137° |
| 2026-04-20 15:04 | 41.32893 | 22.03586 | 34549 ft | 481 kts | 137° |
| 2026-04-20 15:05 | 41.30430 | 22.06609 | 34306 ft | 482 kts | 137° |
| 2026-04-20 15:05 | 41.27965 | 22.09632 | 34069 ft | 482 kts | 137° |
| 2026-04-20 15:05 | 41.25496 | 22.12658 | 33824 ft | 483 kts | 136° |
| 2026-04-20 15:05 | 41.23022 | 22.15686 | 33547 ft | 483 kts | 137° |
| 2026-04-20 15:06 | 41.20552 | 22.18707 | 33283 ft | 483 kts | 137° |
| 2026-04-20 15:06 | 41.18081 | 22.21725 | 32958 ft | 481 kts | 137° |
| 2026-04-20 15:06 | 41.15617 | 22.24696 | 32516 ft | 476 kts | 139° |
| 2026-04-20 15:06 | 41.13104 | 22.27519 | 32057 ft | 471 kts | 141° |
| 2026-04-20 15:07 | 41.10573 | 22.30240 | 31671 ft | 466 kts | 141° |
| 2026-04-20 15:07 | 41.08052 | 22.32905 | 31210 ft | 463 kts | 142° |
| 2026-04-20 15:07 | 41.05529 | 22.35568 | 30771 ft | 460 kts | 142° |
| 2026-04-20 15:07 | 41.03038 | 22.38208 | 30347 ft | 457 kts | 142° |
| 2026-04-20 15:08 | 41.00569 | 22.40838 | 29912 ft | 454 kts | 142° |
| 2026-04-20 15:08 | 40.98119 | 22.43457 | 29397 ft | 451 kts | 142° |
| 2026-04-20 15:08 | 40.95689 | 22.46059 | 28967 ft | 448 kts | 142° |
| 2026-04-20 15:08 | 40.93275 | 22.48645 | 28498 ft | 445 kts | 142° |
| 2026-04-20 15:09 | 40.90877 | 22.51212 | 28054 ft | 442 kts | 142° |
| 2026-04-20 15:09 | 40.88496 | 22.53758 | 27611 ft | 439 kts | 142° |
| 2026-04-20 15:09 | 40.86124 | 22.56292 | 27170 ft | 437 kts | 142° |
| 2026-04-20 15:09 | 40.83799 | 22.58773 | 26742 ft | 434 kts | 142° |
| 2026-04-20 15:10 | 40.81448 | 22.61280 | 26312 ft | 432 kts | 142° |
| 2026-04-20 15:10 | 40.79110 | 22.63769 | 25877 ft | 429 kts | 142° |
| 2026-04-20 15:10 | 40.76791 | 22.66236 | 25454 ft | 427 kts | 142° |
| 2026-04-20 15:10 | 40.74480 | 22.68692 | 25026 ft | 426 kts | 142° |
| 2026-04-20 15:11 | 40.72175 | 22.71140 | 24600 ft | 424 kts | 142° |
| 2026-04-20 15:11 | 40.69907 | 22.73546 | 24174 ft | 422 kts | 142° |
| 2026-04-20 15:11 | 40.67623 | 22.75967 | 23752 ft | 421 kts | 142° |
| 2026-04-20 15:11 | 40.65345 | 22.78380 | 23284 ft | 420 kts | 142° |
| 2026-04-20 15:12 | 40.63074 | 22.80782 | 22807 ft | 418 kts | 142° |
| 2026-04-20 15:12 | 40.60812 | 22.83174 | 22338 ft | 415 kts | 142° |
| 2026-04-20 15:12 | 40.58571 | 22.85541 | 21916 ft | 412 kts | 142° |
| 2026-04-20 15:12 | 40.56340 | 22.87896 | 21483 ft | 409 kts | 142° |
| 2026-04-20 15:13 | 40.54126 | 22.90231 | 21070 ft | 407 kts | 142° |
| 2026-04-20 15:13 | 40.51921 | 22.92555 | 20655 ft | 404 kts | 142° |
| 2026-04-20 15:13 | 40.49732 | 22.94860 | 20245 ft | 402 kts | 142° |
| 2026-04-20 15:13 | 40.47554 | 22.97147 | 19837 ft | 399 kts | 143° |
| 2026-04-20 15:14 | 40.45255 | 22.99164 | 19435 ft | 396 kts | 154° |
| 2026-04-20 15:14 | 40.42772 | 23.00570 | 19371 ft | 381 kts | 162° |
| 2026-04-20 15:14 | 40.41125 | 23.01328 | 19258 ft | 376 kts | 163° |
| 2026-04-20 15:14 | 40.38679 | 23.02450 | 18857 ft | 371 kts | 163° |
| 2026-04-20 15:15 | 40.36242 | 23.03568 | 18317 ft | 370 kts | 163° |
| 2026-04-20 15:15 | 40.33827 | 23.04672 | 17680 ft | 366 kts | 163° |
| 2026-04-20 15:15 | 40.31431 | 23.05771 | 16995 ft | 363 kts | 163° |
| 2026-04-20 15:15 | 40.29056 | 23.06866 | 16347 ft | 360 kts | 163° |
| 2026-04-20 15:16 | 40.26702 | 23.07955 | 15724 ft | 357 kts | 163° |
| 2026-04-20 15:16 | 40.24376 | 23.09034 | 15131 ft | 353 kts | 163° |
| 2026-04-20 15:16 | 40.22078 | 23.10100 | 14777 ft | 350 kts | 163° |
| 2026-04-20 15:16 | 40.19812 | 23.11151 | 14460 ft | 347 kts | 163° |
| 2026-04-20 15:17 | 40.17547 | 23.12201 | 14168 ft | 343 kts | 163° |
| 2026-04-20 15:17 | 40.15313 | 23.13237 | 13872 ft | 339 kts | 163° |
| 2026-04-20 15:17 | 40.13101 | 23.14262 | 13578 ft | 336 kts | 163° |
| 2026-04-20 15:17 | 40.10908 | 23.15277 | 13284 ft | 332 kts | 163° |
| 2026-04-20 15:18 | 40.08745 | 23.16278 | 13002 ft | 327 kts | 163° |
| 2026-04-20 15:18 | 40.06610 | 23.17265 | 12734 ft | 323 kts | 163° |
| 2026-04-20 15:18 | 40.04503 | 23.18238 | 12494 ft | 321 kts | 163° |
| 2026-04-20 15:18 | 40.02388 | 23.19213 | 12239 ft | 322 kts | 163° |
| 2026-04-20 15:19 | 40.00259 | 23.20193 | 11971 ft | 329 kts | 163° |
| 2026-04-20 15:19 | 39.98071 | 23.21199 | 11667 ft | 336 kts | 163° |
| 2026-04-20 15:19 | 39.95866 | 23.22214 | 11312 ft | 336 kts | 163° |
| 2026-04-20 15:19 | 39.93670 | 23.23226 | 10951 ft | 334 kts | 163° |
| 2026-04-20 15:20 | 39.91483 | 23.24233 | 10596 ft | 332 kts | 163° |
| 2026-04-20 15:20 | 39.89308 | 23.25234 | 10317 ft | 327 kts | 163° |
| 2026-04-20 15:20 | 39.87191 | 23.26209 | 10169 ft | 318 kts | 163° |
| 2026-04-20 15:20 | 39.85154 | 23.27146 | 10044 ft | 311 kts | 163° |
| 2026-04-20 15:21 | 39.83128 | 23.28076 | 9759 ft | 308 kts | 164° |
| 2026-04-20 15:21 | 39.81113 | 23.29000 | 9439 ft | 306 kts | 163° |
| 2026-04-20 15:21 | 39.79105 | 23.29919 | 9126 ft | 305 kts | 163° |
| 2026-04-20 15:21 | 39.77109 | 23.30832 | 8799 ft | 303 kts | 163° |
| 2026-04-20 15:22 | 39.75123 | 23.31740 | 8499 ft | 301 kts | 163° |
| 2026-04-20 15:22 | 39.73146 | 23.32644 | 8201 ft | 300 kts | 163° |
| 2026-04-20 15:22 | 39.71182 | 23.33542 | 7900 ft | 298 kts | 163° |
| 2026-04-20 15:22 | 39.69233 | 23.34432 | 7597 ft | 297 kts | 163° |
| 2026-04-20 15:23 | 39.67290 | 23.35319 | 7297 ft | 295 kts | 163° |
| 2026-04-20 15:23 | 39.65356 | 23.36201 | 7001 ft | 294 kts | 163° |
| 2026-04-20 15:23 | 39.63429 | 23.37080 | 6704 ft | 293 kts | 163° |
| 2026-04-20 15:23 | 39.61510 | 23.37954 | 6405 ft | 292 kts | 163° |
| 2026-04-20 15:24 | 39.59598 | 23.38825 | 6090 ft | 291 kts | 163° |
| 2026-04-20 15:24 | 39.57695 | 23.39691 | 5776 ft | 288 kts | 163° |
| 2026-04-20 15:24 | 39.55825 | 23.40543 | 5472 ft | 283 kts | 163° |
| 2026-04-20 15:24 | 39.54008 | 23.41370 | 5184 ft | 278 kts | 163° |
| 2026-04-20 15:25 | 39.52200 | 23.42192 | 4909 ft | 273 kts | 163° |
| 2026-04-20 15:25 | 39.50424 | 23.42999 | 4621 ft | 269 kts | 163° |
| 2026-04-20 15:25 | 39.48660 | 23.43799 | 4342 ft | 268 kts | 163° |
| 2026-04-20 15:25 | 39.46909 | 23.44593 | 4145 ft | 264 kts | 162° |
| 2026-04-20 15:26 | 39.45197 | 23.45370 | 4023 ft | 257 kts | 162° |
| 2026-04-20 15:26 | 39.43539 | 23.46122 | 3932 ft | 247 kts | 163° |
| 2026-04-20 15:26 | 39.41960 | 23.46838 | 3820 ft | 234 kts | 163° |
| 2026-04-20 15:26 | 39.40465 | 23.47516 | 3704 ft | 222 kts | 163° |
| 2026-04-20 15:27 | 39.39052 | 23.48156 | 3618 ft | 207 kts | 163° |
| 2026-04-20 15:27 | 39.37736 | 23.48752 | 3537 ft | 194 kts | 163° |
| 2026-04-20 15:27 | 39.36488 | 23.49316 | 3378 ft | 186 kts | 163° |
| 2026-04-20 15:27 | 39.35284 | 23.49859 | 3227 ft | 182 kts | 163° |
| 2026-04-20 15:28 | 39.34092 | 23.50397 | 3041 ft | 181 kts | 163° |
| 2026-04-20 15:28 | 39.32905 | 23.50933 | 2896 ft | 180 kts | 163° |
| 2026-04-20 15:28 | 39.31724 | 23.51466 | 2661 ft | 178 kts | 162° |
| 2026-04-20 15:28 | 39.30583 | 23.51981 | 2455 ft | 174 kts | 163° |
| 2026-04-20 15:29 | 39.29467 | 23.52484 | 2238 ft | 165 kts | 163° |
| 2026-04-20 15:29 | 39.28429 | 23.52954 | 2093 ft | 149 kts | 163° |
| 2026-04-20 15:29 | 39.27475 | 23.53384 | 1906 ft | 142 kts | 163° |
| 2026-04-20 15:29 | 39.26536 | 23.53697 | 1723 ft | 139 kts | 180° |
| 2026-04-20 15:30 | 39.25572 | 23.53576 | 1590 ft | 140 kts | 188° |
| 2026-04-20 15:30 | 39.24602 | 23.53376 | 1380 ft | 141 kts | 192° |
| 2026-04-20 15:30 | 39.23660 | 23.53016 | 1172 ft | 143 kts | 200° |
| 2026-04-20 15:30 | 39.22728 | 23.52574 | 966 ft | 141 kts | 200° |
| 2026-04-20 15:31 | 39.21808 | 23.52157 | 754 ft | 138 kts | 198° |
| 2026-04-20 15:31 | 39.20898 | 23.51762 | 550 ft | 137 kts | 198° |
| 2026-04-20 15:31 | 39.20013 | 23.51381 | 390 ft | 137 kts | 198° |
| 2026-04-20 15:31 | 39.19108 | 23.50984 | 232 ft | 137 kts | 198° |
| 2026-04-20 15:32 | 39.18197 | 23.50585 | 61 ft | 138 kts | 199° |
| 2026-04-20 15:32 | 39.17478 | 23.50264 | 37 ft | 66 kts | 199° |
| 2026-04-20 15:32 | 39.17208 | 23.50144 | 22 ft | 19 kts | 199° |
| 2026-04-20 15:32 | 39.17128 | 23.50108 | 19 ft | 11 kts | 199° |
| 2026-04-20 15:33 | 39.17068 | 23.50063 | 16 ft | 12 kts | 223° |
| 2026-04-20 15:33 | 39.17024 | 23.50050 | 10 ft | 5 kts | 130° |
| 2026-04-20 15:33 | 39.17044 | 23.50078 | 13 ft | 5 kts | 10° |
| 2026-04-20 15:33 | 39.17080 | 23.50088 | 17 ft | 6 kts | 14° |
| 2026-04-20 15:34 | 39.17142 | 23.50114 | 20 ft | 12 kts | 19° |
| 2026-04-20 15:34 | 39.17244 | 23.50160 | 24 ft | 18 kts | 19° |
| 2026-04-20 15:34 | 39.17374 | 23.50217 | 34 ft | 20 kts | 19° |
| 2026-04-20 15:34 | 39.17501 | 23.50274 | 39 ft | 16 kts | 19° |
| 2026-04-20 15:35 | 39.17603 | 23.50319 | 40 ft | 15 kts | 19° |
| 2026-04-20 15:35 | 39.17689 | 23.50324 | 39 ft | 13 kts | 322° |
| 2026-04-20 15:35 | 39.17736 | 23.50267 | 38 ft | 9 kts | 348° |
| 2026-04-20 15:35 | 39.17796 | 23.50285 | 38 ft | 9 kts | 19° |
| 2026-04-20 15:36 | 39.17854 | 23.50311 | 38 ft | 9 kts | 19° |
| 2026-04-20 15:36 | 39.17897 | 23.50284 | 38 ft | 6 kts | 287° |
| 2026-04-20 15:36 | 39.17906 | 23.50252 | 38 ft | 3 kts | 290° |
| 2026-04-20 15:36 | 39.17909 | 23.50242 | 38 ft | 0 kts | 290° |